Time;durP1;ratioP1;P1;durP2;ratioP2;P2;SDS_P1;SDS_P2;PMS_P1;PMS_P2;Temp;Humidity;BMP_temperature;BMP_pressure;BME280_temperature;BME280_humidity;BME280_pressure;Samples;Min_cycle;Max_cycle;Signal;HPM_P1;HPM_P2
2020/12/10 00:00:21;;;;;;;2.55;1.55;;;25.50;46.80;;;;;;4150586;28;19937;-52
2020/12/10 00:02:26;;;;;;;2.65;1.60;;;25.50;46.20;;;;;;4147553;28;20057;-47
2020/12/10 00:04:28;;;;;;;2.53;1.50;;;25.50;46.10;;;;;;4149830;28;20029;-48
2020/12/10 00:06:31;;;;;;;3.58;1.50;;;25.60;46.20;;;;;;4150980;28;20069;-52
2020/12/10 00:08:33;;;;;;;2.10;1.63;;;25.60;46.10;;;;;;4151170;28;20029;-49
2020/12/10 00:10:35;;;;;;;1.95;1.20;;;25.60;46.10;;;;;;4149491;28;20043;-48
2020/12/10 00:12:46;;;;;;;3.08;1.55;;;25.60;46.10;;;;;;4149258;28;20041;-51
2020/12/10 00:14:53;;;;;;;1.90;1.15;;;25.70;46.20;;;;;;4152133;28;20056;-49
2020/12/10 00:16:55;;;;;;;1.88;1.30;;;25.60;46.10;;;;;;4150323;28;20045;-46
2020/12/10 00:18:57;;;;;;;2.47;1.40;;;25.70;46.10;;;;;;4149961;28;20033;-50
2020/12/10 00:21:00;;;;;;;3.35;1.48;;;25.70;46.10;;;;;;4144664;28;20033;-51
2020/12/10 00:23:02;;;;;;;1.98;1.30;;;25.70;46.10;;;;;;4136163;28;20602;-52
2020/12/10 00:25:07;;;;;;;2.58;1.40;;;25.70;46.10;;;;;;4132600;28;20506;-48
2020/12/10 00:27:09;;;;;;;2.13;1.70;;;25.80;46.20;;;;;;4134444;28;20038;-52
2020/12/10 00:29:11;;;;;;;1.67;1.40;;;25.80;46.20;;;;;;4132271;28;20053;-50
2020/12/10 00:31:13;;;;;;;4.07;1.60;;;25.80;46.30;;;;;;4131578;28;20689;-49
2020/12/10 00:33:15;;;;;;;3.00;1.60;;;25.80;46.30;;;;;;4133902;28;20048;-49
2020/12/10 00:35:18;;;;;;;1.60;1.40;;;25.90;46.30;;;;;;4135207;28;20133;-51
2020/12/10 00:37:20;;;;;;;1.70;1.27;;;25.80;46.20;;;;;;4129971;28;20026;-49
2020/12/10 00:39:22;;;;;;;2.65;1.63;;;25.90;46.30;;;;;;4134534;28;20041;-49
2020/12/10 00:41:24;;;;;;;2.00;1.42;;;25.90;46.20;;;;;;4133814;28;20034;-46
2020/12/10 00:43:27;;;;;;;2.78;1.40;;;25.90;46.20;;;;;;4135410;28;20078;-49
2020/12/10 00:45:29;;;;;;;3.03;1.40;;;25.90;46.10;;;;;;4136419;28;20045;-48
2020/12/10 00:47:31;;;;;;;1.85;1.30;;;25.90;46.10;;;;;;4146227;28;20096;-51
2020/12/10 00:49:33;;;;;;;3.67;1.40;;;25.90;46.20;;;;;;4149709;28;20527;-48
2020/12/10 00:51:35;;;;;;;3.05;1.70;;;25.90;46.10;;;;;;4149248;28;20053;-50
2020/12/10 00:53:37;;;;;;;3.58;1.67;;;25.90;46.10;;;;;;4149631;28;20080;-53
2020/12/10 00:55:39;;;;;;;3.75;1.60;;;25.90;46.10;;;;;;4147371;28;20044;-50
2020/12/10 00:57:43;;;;;;;3.55;1.83;;;26.00;46.20;;;;;;4149181;28;20091;-48
2020/12/10 00:59:45;;;;;;;2.10;1.52;;;26.00;46.10;;;;;;4149448;28;20060;-52
2020/12/10 01:01:47;;;;;;;3.08;1.52;;;26.00;46.00;;;;;;4145665;28;20170;-51
2020/12/10 01:03:49;;;;;;;3.33;1.50;;;26.00;46.00;;;;;;4147060;28;20037;-50
2020/12/10 01:05:51;;;;;;;3.45;1.83;;;26.00;46.10;;;;;;4148197;28;20029;-52
2020/12/10 01:07:53;;;;;;;2.92;1.52;;;26.00;46.10;;;;;;4148451;28;20084;-50
2020/12/10 01:09:55;;;;;;;3.55;1.80;;;26.10;46.20;;;;;;4149960;28;20366;-50
2020/12/10 01:11:57;;;;;;;3.45;1.60;;;26.10;47.00;;;;;;4149663;28;20056;-48
2020/12/10 01:14:00;;;;;;;4.80;2.05;;;26.10;46.40;;;;;;4150392;28;20037;-49
2020/12/10 01:16:02;;;;;;;2.63;1.63;;;26.10;46.60;;;;;;4149175;28;20042;-46
2020/12/10 01:18:04;;;;;;;3.70;1.80;;;26.10;46.60;;;;;;4150288;28;20029;-49
2020/12/10 01:20:06;;;;;;;3.10;1.73;;;26.10;46.60;;;;;;4152476;28;20034;-50
2020/12/10 01:22:09;;;;;;;2.60;1.38;;;26.10;46.60;;;;;;4146800;28;20172;-52
2020/12/10 01:24:11;;;;;;;2.70;1.52;;;26.10;46.60;;;;;;4145804;28;20143;-51
2020/12/10 01:26:13;;;;;;;3.33;1.92;;;26.20;46.70;;;;;;4136926;28;20022;-50
2020/12/10 01:28:16;;;;;;;3.55;1.80;;;26.20;46.90;;;;;;4149737;28;20111;-50
2020/12/10 01:30:18;;;;;;;4.93;2.10;;;26.20;47.00;;;;;;4149918;28;20475;-52
2020/12/10 01:32:23;;;;;;;2.97;1.67;;;26.20;47.00;;;;;;4150676;28;20782;-54
2020/12/10 01:34:26;;;;;;;4.10;2.05;;;26.20;47.20;;;;;;4149710;28;20072;-53
2020/12/10 01:36:30;;;;;;;4.97;2.17;;;26.20;47.30;;;;;;4149910;28;20108;-54
2020/12/10 01:38:32;;;;;;;5.43;2.00;;;26.20;47.20;;;;;;4156299;28;20061;-52
2020/12/10 01:40:34;;;;;;;5.57;2.60;;;26.30;47.20;;;;;;4152231;28;20037;-52
2020/12/10 01:42:38;;;;;;;4.78;2.60;;;26.30;47.20;;;;;;4151604;28;20594;-51
2020/12/10 01:44:40;;;;;;;5.55;2.38;;;26.30;47.40;;;;;;4153299;28;20034;-50
2020/12/10 01:46:43;;;;;;;5.83;2.17;;;26.30;47.30;;;;;;4135383;28;20152;-49
2020/12/10 01:48:45;;;;;;;6.55;2.22;;;26.30;47.30;;;;;;4144222;28;20053;-52
2020/12/10 01:50:47;;;;;;;6.93;2.53;;;26.30;47.40;;;;;;4155971;28;20479;-50
2020/12/10 01:52:52;;;;;;;4.90;2.50;;;26.30;47.60;;;;;;4157438;28;20037;-50
2020/12/10 01:54:54;;;;;;;5.43;2.50;;;26.40;47.60;;;;;;4152496;28;20046;-47
2020/12/10 01:56:56;;;;;;;5.72;2.70;;;26.40;47.60;;;;;;4149680;28;20056;-49
2020/12/10 01:59:01;;;;;;;6.80;2.88;;;26.40;47.70;;;;;;4151970;28;20048;-52
2020/12/10 02:01:03;;;;;;;6.22;2.55;;;26.40;47.70;;;;;;4140169;28;20108;-48
2020/12/10 02:03:05;;;;;;;6.95;2.78;;;26.40;47.60;;;;;;4137327;28;20063;-46
2020/12/10 02:05:07;;;;;;;4.53;2.75;;;26.50;47.80;;;;;;4132685;28;20428;-50
2020/12/10 02:07:09;;;;;;;5.88;2.83;;;26.50;48.00;;;;;;4135871;28;20038;-45
2020/12/10 02:09:11;;;;;;;6.18;3.05;;;26.50;48.10;;;;;;4133348;28;20132;-47
2020/12/10 02:11:14;;;;;;;6.28;2.83;;;26.50;48.20;;;;;;4137680;28;20425;-51
2020/12/10 02:13:16;;;;;;;5.18;2.60;;;26.50;48.20;;;;;;4134418;28;20096;-45
2020/12/10 02:15:18;;;;;;;6.18;2.75;;;26.50;48.20;;;;;;4143645;28;20061;-46
2020/12/10 02:17:20;;;;;;;4.72;2.97;;;26.50;48.10;;;;;;4147255;28;20045;-47
2020/12/10 02:19:22;;;;;;;7.55;2.90;;;26.50;48.20;;;;;;4151506;28;20029;-48
2020/12/10 02:21:24;;;;;;;7.13;2.80;;;26.60;48.20;;;;;;4148628;28;20046;-45
2020/12/10 02:23:30;;;;;;;6.10;2.72;;;26.60;48.20;;;;;;4134388;28;20145;-47
2020/12/10 02:25:34;;;;;;;5.80;3.05;;;26.60;48.10;;;;;;4152819;28;20061;-46
2020/12/10 02:27:36;;;;;;;7.53;3.00;;;26.60;48.00;;;;;;4156508;28;20040;-47
2020/12/10 02:29:38;;;;;;;6.40;3.20;;;26.60;48.00;;;;;;4154080;28;20030;-48
2020/12/10 02:31:40;;;;;;;4.50;2.67;;;26.70;47.90;;;;;;4158641;28;20046;-51
2020/12/10 02:33:42;;;;;;;6.80;3.05;;;26.70;47.90;;;;;;4152864;28;20176;-45
2020/12/10 02:35:46;;;;;;;5.38;2.50;;;26.70;47.70;;;;;;4155267;28;22121;-44
2020/12/10 02:37:48;;;;;;;7.82;2.65;;;26.70;47.50;;;;;;4156451;28;20057;-49
2020/12/10 02:39:50;;;;;;;4.15;2.28;;;26.70;47.20;;;;;;4158475;28;20038;-51
2020/12/10 02:41:52;;;;;;;4.30;1.88;;;26.70;47.00;;;;;;4134587;28;20370;-52
2020/12/10 02:43:54;;;;;;;6.43;2.20;;;26.70;46.70;;;;;;4133724;28;20118;-46
2020/12/10 02:45:56;;;;;;;4.93;1.93;;;26.70;46.60;;;;;;4143446;28;20046;-50
2020/12/10 02:47:59;;;;;;;2.58;1.70;;;26.70;46.60;;;;;;4148803;28;20033;-46
2020/12/10 02:50:01;;;;;;;4.43;2.53;;;26.70;46.50;;;;;;4153978;28;20117;-53
2020/12/10 02:52:03;;;;;;;5.60;1.90;;;26.70;46.30;;;;;;4144069;28;20121;-52
2020/12/10 02:54:05;;;;;;;3.85;1.80;;;26.80;46.30;;;;;;4152503;28;20029;-50
2020/12/10 02:56:12;;;;;;;3.97;1.92;;;26.80;46.20;;;;;;4150495;28;20052;-45
2020/12/10 02:58:14;;;;;;;3.85;1.90;;;26.80;46.20;;;;;;4152819;28;20038;-50
2020/12/10 03:00:16;;;;;;;3.50;1.52;;;26.80;46.10;;;;;;4151224;28;20136;-51
2020/12/10 03:02:18;;;;;;;2.90;1.70;;;26.80;46.10;;;;;;4154052;28;20053;-53
2020/12/10 03:04:21;;;;;;;3.80;1.83;;;26.90;46.20;;;;;;4148970;28;20046;-52
2020/12/10 03:06:23;;;;;;;3.92;1.42;;;26.90;46.10;;;;;;4152959;28;20263;-55
2020/12/10 03:08:25;;;;;;;3.63;1.67;;;26.90;46.10;;;;;;4152853;28;20045;-49
2020/12/10 03:10:27;;;;;;;3.23;1.53;;;26.90;46.00;;;;;;4150837;28;20113;-53
2020/12/10 03:12:29;;;;;;;2.75;1.60;;;26.90;46.00;;;;;;4148498;28;20400;-49
2020/12/10 03:14:31;;;;;;;2.60;1.33;;;26.90;46.00;;;;;;4150220;28;21210;-48
2020/12/10 03:16:34;;;;;;;3.30;1.73;;;26.90;45.90;;;;;;4151665;28;20064;-49
2020/12/10 03:18:36;;;;;;;;;;;27.00;46.00;;;;;;4146559;28;20056;-50
2020/12/10 03:20:38;;;;;;;2.10;1.45;;;27.00;45.90;;;;;;4147651;28;19940;-52
2020/12/10 03:22:40;;;;;;;3.08;1.70;;;27.00;45.90;;;;;;4148509;28;20091;-49
2020/12/10 03:24:43;;;;;;;2.45;1.45;;;27.00;45.90;;;;;;4154007;28;20090;-50
2020/12/10 03:26:45;;;;;;;2.40;1.30;;;27.00;45.90;;;;;;4149110;28;20037;-51
2020/12/10 03:28:47;;;;;;;2.97;1.40;;;27.00;45.90;;;;;;4154733;28;20278;-47
2020/12/10 03:30:49;;;;;;;1.70;1.02;;;27.00;45.90;;;;;;4149661;28;20049;-46
2020/12/10 03:32:51;;;;;;;1.97;1.30;;;27.00;45.80;;;;;;4151969;28;20113;-49
2020/12/10 03:34:53;;;;;;;1.90;1.20;;;27.00;45.90;;;;;;4151250;28;20026;-47
2020/12/10 03:36:58;;;;;;;2.55;1.42;;;27.00;45.90;;;;;;4149712;28;20044;-50
2020/12/10 03:39:00;;;;;;;2.03;1.10;;;27.10;46.00;;;;;;4150081;28;20681;-48
2020/12/10 03:41:10;;;;;;;2.60;1.20;;;27.10;46.00;;;;;;4145603;28;20465;-50
2020/12/10 03:43:12;;;;;;;2.90;1.30;;;27.10;45.90;;;;;;4151278;28;20049;-50
2020/12/10 03:45:14;;;;;;;2.80;1.42;;;27.10;45.90;;;;;;4147289;28;20403;-52
2020/12/10 03:47:16;;;;;;;1.83;1.05;;;27.10;45.90;;;;;;4152007;28;20387;-51
2020/12/10 03:49:19;;;;;;;2.90;1.40;;;27.10;46.00;;;;;;4142089;28;20033;-51
2020/12/10 03:51:21;;;;;;;1.70;1.20;;;27.20;46.10;;;;;;4141755;28;20472;-47
2020/12/10 03:53:23;;;;;;;3.13;1.38;;;27.10;46.10;;;;;;4153259;28;20026;-49
2020/12/10 03:55:25;;;;;;;2.03;1.27;;;27.10;46.10;;;;;;4150764;28;20535;-49
2020/12/10 03:57:27;;;;;;;4.55;1.45;;;27.20;46.30;;;;;;4145628;28;20383;-52
2020/12/10 03:59:29;;;;;;;3.30;1.58;;;27.20;46.40;;;;;;4151021;28;20104;-52
2020/12/10 04:01:31;;;;;;;5.05;1.60;;;27.20;46.60;;;;;;4150702;28;20077;-51
2020/12/10 04:03:33;;;;;;;7.95;2.60;;;27.20;46.80;;;;;;4150524;28;20072;-52
2020/12/10 04:05:35;;;;;;;7.57;2.47;;;27.20;47.50;;;;;;4149461;28;20485;-52
2020/12/10 04:07:38;;;;;;;6.32;2.63;;;27.20;47.90;;;;;;4147300;28;20033;-46
2020/12/10 04:09:40;;;;;;;7.43;2.53;;;27.20;48.60;;;;;;4148211;28;20041;-48
2020/12/10 04:11:42;;;;;;;10.30;2.65;;;27.20;48.80;;;;;;4148909;28;20041;-44
2020/12/10 04:13:44;;;;;;;14.10;2.90;;;27.20;49.10;;;;;;4149445;28;20034;-45
2020/12/10 04:15:46;;;;;;;7.82;2.60;;;27.20;48.90;;;;;;4149398;28;20398;-46
2020/12/10 04:17:49;;;;;;;5.43;2.30;;;27.30;49.00;;;;;;4149577;28;20022;-43
2020/12/10 04:19:51;;;;;;;6.65;2.75;;;27.30;48.80;;;;;;4146067;28;20060;-46
2020/12/10 04:21:53;;;;;;;7.88;3.10;;;27.30;48.80;;;;;;4148933;28;20167;-45
2020/12/10 04:23:56;;;;;;;11.20;2.95;;;27.30;48.80;;;;;;4146408;28;20107;-48
2020/12/10 04:25:58;;;;;;;7.18;2.97;;;27.30;48.80;;;;;;4152429;28;20084;-48
2020/12/10 04:28:00;;;;;;;6.25;2.85;;;27.40;48.70;;;;;;4144150;28;20052;-45
2020/12/10 04:30:02;;;;;;;6.78;2.58;;;27.40;48.40;;;;;;4146824;28;20117;-45
2020/12/10 04:32:04;;;;;;;7.20;2.80;;;27.40;48.50;;;;;;4149692;28;20030;-43
2020/12/10 04:34:07;;;;;;;6.47;2.77;;;27.50;48.40;;;;;;4148600;28;20041;-45
2020/12/10 04:36:09;;;;;;;7.37;2.73;;;27.50;48.40;;;;;;4151273;28;20032;-49
2020/12/10 04:38:11;;;;;;;5.05;2.38;;;27.50;48.20;;;;;;4150259;28;20033;-45
2020/12/10 04:40:13;;;;;;;6.68;2.20;;;27.50;48.30;;;;;;4148861;28;20037;-48
2020/12/10 04:42:18;;;;;;;7.13;2.70;;;27.60;48.20;;;;;;4147008;28;20067;-43
2020/12/10 04:44:20;;;;;;;5.50;2.50;;;27.60;48.10;;;;;;4150630;28;20033;-42
2020/12/10 04:46:25;;;;;;;5.72;2.53;;;27.50;48.10;;;;;;4142859;28;20357;-43
2020/12/10 04:48:33;;;;;;;7.43;2.70;;;27.50;48.70;;;;;;4149032;28;20058;-42
2020/12/10 04:50:38;;;;;;;10.00;2.83;;;27.50;48.20;;;;;;4148718;28;20475;-44
2020/12/10 04:52:40;;;;;;;8.10;2.40;;;27.50;48.20;;;;;;4147404;28;20481;-44
2020/12/10 04:54:42;;;;;;;7.85;2.55;;;27.50;48.20;;;;;;4149976;28;20038;-45
2020/12/10 04:56:45;;;;;;;7.57;2.53;;;27.50;48.10;;;;;;4151609;28;20207;-45
2020/12/10 04:58:48;;;;;;;7.40;2.08;;;27.60;48.10;;;;;;4145862;28;20092;-45
2020/12/10 05:00:57;;;;;;;6.80;2.95;;;27.60;48.00;;;;;;4146750;28;20083;-43
2020/12/10 05:02:59;;;;;;;6.88;2.63;;;27.60;48.00;;;;;;4144895;28;20053;-45
2020/12/10 05:05:19;;;;;;;8.43;2.88;;;27.60;47.90;;;;;;4133418;28;20491;-47
2020/12/10 05:07:21;;;;;;;8.40;2.70;;;27.60;47.80;;;;;;4144234;28;20045;-42
2020/12/10 05:09:23;;;;;;;8.30;2.58;;;27.60;47.90;;;;;;4149120;28;20053;-43
2020/12/10 05:11:36;;;;;;;5.35;2.47;;;27.70;48.60;;;;;;4149491;28;20034;-47
2020/12/10 05:13:39;;;;;;;7.28;2.85;;;27.70;47.90;;;;;;4147674;28;20064;-47
2020/12/10 05:15:43;;;;;;;7.32;2.80;;;27.70;48.00;;;;;;4149313;28;20086;-46
2020/12/10 05:17:45;;;;;;;7.60;2.58;;;27.60;48.00;;;;;;4148382;28;20472;-42
2020/12/10 05:19:56;;;;;;;6.90;2.33;;;27.60;47.90;;;;;;4150788;28;20527;-42
2020/12/10 05:22:06;;;;;;;7.55;3.08;;;27.60;48.00;;;;;;4149171;28;20048;-44
2020/12/10 05:24:21;;;;;;;5.82;2.10;;;27.60;48.10;;;;;;4148001;28;20112;-45
2020/12/10 05:26:23;;;;;;;7.82;2.50;;;27.70;48.80;;;;;;4148011;28;20065;-45
2020/12/10 05:28:27;;;;;;;6.57;2.60;;;27.70;48.00;;;;;;4147167;28;20066;-45
2020/12/10 05:30:29;;;;;;;9.68;2.80;;;27.70;48.00;;;;;;4152189;28;20045;-43
2020/12/10 05:32:44;;;;;;;9.40;2.60;;;27.70;48.00;;;;;;4150660;28;20141;-46
2020/12/10 05:34:46;;;;;;;7.60;2.55;;;27.70;48.00;;;;;;4149450;28;20056;-47
2020/12/10 05:36:48;;;;;;;8.40;2.85;;;27.70;48.00;;;;;;4145817;28;20043;-48
2020/12/10 05:39:10;;;;;;;8.52;2.88;;;27.70;48.10;;;;;;4149793;28;20022;-55
2020/12/10 05:41:19;;;;;;;7.57;2.50;;;27.70;48.10;;;;;;4147151;28;20041;-43
2020/12/10 05:43:24;;;;;;;7.75;3.00;;;27.70;48.10;;;;;;4149836;28;20597;-43
2020/12/10 05:45:27;;;;;;;9.50;2.50;;;27.70;48.10;;;;;;4148017;28;20198;-42
2020/12/10 05:47:30;;;;;;;10.35;2.92;;;27.70;48.20;;;;;;4148485;28;20025;-44
2020/12/10 05:49:32;;;;;;;7.07;2.47;;;27.70;48.20;;;;;;4145861;28;20427;-46
2020/12/10 05:51:46;;;;;;;8.48;2.90;;;27.70;48.20;;;;;;4147075;28;20053;-45
2020/12/10 05:53:50;;;;;;;6.82;2.40;;;27.70;48.10;;;;;;4150378;28;20092;-44
2020/12/10 05:55:54;;;;;;;6.70;2.70;;;27.70;48.00;;;;;;4149390;28;20120;-45
2020/12/10 05:57:57;;;;;;;9.73;2.70;;;27.80;47.90;;;;;;4148473;28;20144;-48
2020/12/10 05:59:59;;;;;;;;;;;27.80;47.80;;;;;;4147552;28;20029;-49
2020/12/10 06:02:07;;;;;;;10.15;2.70;;;27.80;47.80;;;;;;4147915;28;19997;-44
2020/12/10 06:04:12;;;;;;;6.90;2.60;;;27.80;47.80;;;;;;4145966;28;20476;-47
2020/12/10 06:06:20;;;;;;;4.75;2.30;;;27.80;47.70;;;;;;4151933;28;20392;-47
2020/12/10 06:08:22;;;;;;;7.97;2.50;;;27.80;47.80;;;;;;4145812;28;20360;-44
2020/12/10 06:10:25;;;;;;;6.95;2.55;;;27.70;47.80;;;;;;4150387;28;20517;-44
2020/12/10 06:12:27;;;;;;;7.55;2.50;;;27.70;47.90;;;;;;4150035;28;20049;-48
2020/12/10 06:14:30;;;;;;;7.43;2.22;;;27.70;47.90;;;;;;4157618;28;20033;-43
2020/12/10 06:16:33;;;;;;;7.00;2.45;;;27.60;47.80;;;;;;4149138;28;20118;-45
2020/12/10 06:19:00;;;;;;;6.05;2.58;;;27.60;47.80;;;;;;4153587;28;20053;-43
2020/12/10 06:21:03;;;;;;;7.50;2.70;;;27.60;47.80;;;;;;4151806;28;20033;-46
2020/12/10 06:23:23;;;;;;;5.80;2.90;;;27.60;47.90;;;;;;4153562;28;20414;-43
2020/12/10 06:25:31;;;;;;;6.88;2.47;;;27.60;47.90;;;;;;4148837;28;20116;-47
2020/12/10 06:27:36;;;;;;;8.60;2.70;;;27.60;47.90;;;;;;4151550;28;20053;-47
2020/12/10 06:29:38;;;;;;;5.60;2.60;;;27.60;47.90;;;;;;4153254;28;20029;-43
2020/12/10 06:32:02;;;;;;;6.85;2.75;;;27.60;48.00;;;;;;4152504;28;20037;-46
2020/12/10 06:34:04;;;;;;;6.75;2.58;;;27.50;47.90;;;;;;4149459;28;20055;-43
2020/12/10 06:36:26;;;;;;;6.22;2.38;;;27.50;47.90;;;;;;4152302;28;20406;-47
2020/12/10 06:38:45;;;;;;;8.40;2.42;;;27.50;47.90;;;;;;4149350;28;20057;-44
2020/12/10 06:40:47;;;;;;;6.15;2.58;;;27.50;47.90;;;;;;4150451;28;20039;-45
2020/12/10 06:42:49;;;;;;;5.65;2.30;;;27.50;47.90;;;;;;4149139;28;20122;-44
2020/12/10 06:44:51;;;;;;;5.43;2.20;;;27.40;47.80;;;;;;4149044;28;20041;-50
2020/12/10 06:46:53;;;;;;;7.05;2.78;;;27.40;47.80;;;;;;4153704;28;20030;-45
2020/12/10 06:48:56;;;;;;;5.43;2.40;;;27.40;47.90;;;;;;4148431;28;20399;-43
2020/12/10 06:51:14;;;;;;;8.32;2.28;;;27.40;47.90;;;;;;4151508;28;20478;-45
2020/12/10 06:53:21;;;;;;;5.00;2.25;;;27.30;47.90;;;;;;4152863;28;20021;-43
2020/12/10 06:55:23;;;;;;;7.85;2.50;;;27.30;47.90;;;;;;4150337;28;20153;-44
2020/12/10 06:57:26;;;;;;;4.75;1.80;;;27.30;48.00;;;;;;4151394;28;20137;-47
2020/12/10 06:59:42;;;;;;;4.80;2.00;;;27.30;48.00;;;;;;4152829;28;20030;-44
2020/12/10 07:01:44;;;;;;;6.68;2.65;;;27.30;48.00;;;;;;4150555;28;20056;-48
2020/12/10 07:03:47;;;;;;;6.13;2.67;;;27.20;48.00;;;;;;4151780;28;20041;-48
2020/12/10 07:05:49;;;;;;;7.35;3.10;;;27.20;48.10;;;;;;4149548;28;20128;-43
2020/12/10 07:08:06;;;;;;;5.00;2.85;;;27.20;48.20;;;;;;4151968;28;20486;-46
2020/12/10 07:10:08;;;;;;;6.55;3.05;;;27.20;48.20;;;;;;4150403;28;20479;-47
2020/12/10 07:12:22;;;;;;;8.48;3.30;;;27.10;48.20;;;;;;4149055;28;20113;-50
2020/12/10 07:14:27;;;;;;;8.82;3.33;;;27.10;48.20;;;;;;4154441;28;21043;-46
2020/12/10 07:16:31;;;;;;;14.93;3.53;;;27.10;48.30;;;;;;4147837;28;20334;-48
2020/12/10 07:18:33;;;;;;;9.32;3.67;;;27.10;48.30;;;;;;4152804;28;20068;-45
2020/12/10 07:20:35;;;;;;;7.28;2.78;;;27.10;48.30;;;;;;4151124;28;20329;-49
2020/12/10 07:22:37;;;;;;;6.90;3.17;;;27.00;48.20;;;;;;4151765;28;20132;-46
2020/12/10 07:24:39;;;;;;;8.55;3.38;;;27.00;48.20;;;;;;4149943;28;20034;-45
2020/12/10 07:26:42;;;;;;;8.63;3.17;;;27.00;48.20;;;;;;4148863;28;20506;-43
2020/12/10 07:28:47;;;;;;;6.50;2.83;;;27.00;48.20;;;;;;4152379;28;20599;-50
2020/12/10 07:30:49;;;;;;;12.38;3.60;;;27.00;48.20;;;;;;4149031;28;20470;-45
2020/12/10 07:32:56;;;;;;;7.65;2.58;;;27.00;48.20;;;;;;4148193;28;20029;-46
2020/12/10 07:34:58;;;;;;;7.75;2.75;;;26.90;48.20;;;;;;4136395;28;20033;-45
2020/12/10 07:37:00;;;;;;;5.45;2.22;;;26.90;48.20;;;;;;4141436;28;20041;-46
2020/12/10 07:39:02;;;;;;;8.98;2.53;;;26.90;48.20;;;;;;4148047;28;20459;-46
2020/12/10 07:41:06;;;;;;;8.80;2.78;;;26.90;48.20;;;;;;4137263;28;20044;-43
2020/12/10 07:43:09;;;;;;;9.43;2.33;;;26.90;48.20;;;;;;4142178;28;20468;-49
2020/12/10 07:45:18;;;;;;;5.50;2.25;;;26.90;48.30;;;;;;4151681;28;20075;-45
2020/12/10 07:47:20;;;;;;;5.22;1.95;;;26.80;48.20;;;;;;4150349;28;20062;-43
2020/12/10 07:49:33;;;;;;;7.78;2.38;;;26.80;48.20;;;;;;4149508;28;20105;-44
2020/12/10 07:51:35;;;;;;;8.87;2.50;;;26.80;48.20;;;;;;4149107;28;20033;-45
2020/12/10 07:53:37;;;;;;;6.93;2.65;;;26.80;48.30;;;;;;4150084;28;20037;-43
2020/12/10 07:55:50;;;;;;;6.82;2.80;;;26.80;48.30;;;;;;4151101;28;20045;-45
2020/12/10 07:58:19;;;;;;;7.55;2.13;;;26.80;48.30;;;;;;4149981;28;20124;-48
2020/12/10 08:00:27;;;;;;;6.30;2.80;;;26.80;48.30;;;;;;4141804;28;20037;-49
2020/12/10 08:02:58;;;;;;;7.95;2.80;;;26.70;48.30;;;;;;4148432;28;20046;-47
2020/12/10 08:05:00;;;;;;;5.57;2.38;;;26.80;48.30;;;;;;4146145;28;20092;-48
2020/12/10 08:07:10;;;;;;;5.35;2.40;;;26.70;48.20;;;;;;4139345;28;20407;-44
2020/12/10 08:09:14;;;;;;;6.40;2.28;;;26.70;48.30;;;;;;4133096;28;20458;-43
2020/12/10 08:11:18;;;;;;;6.70;2.83;;;26.70;48.30;;;;;;4134856;28;20030;-47
2020/12/10 08:13:21;;;;;;;6.15;2.35;;;26.70;48.40;;;;;;4137965;28;20034;-43
2020/12/10 08:15:23;;;;;;;6.35;2.40;;;26.70;48.40;;;;;;4138091;28;20100;-48
2020/12/10 08:17:27;;;;;;;6.10;2.65;;;26.70;48.40;;;;;;4150957;28;20557;-46
2020/12/10 08:19:31;;;;;;;7.10;2.88;;;26.60;48.50;;;;;;4149607;28;20582;-43
2020/12/10 08:21:33;;;;;;;9.35;3.00;;;26.60;48.50;;;;;;4148164;28;20057;-43
2020/12/10 08:23:45;;;;;;;6.67;2.40;;;26.60;48.50;;;;;;4150751;28;20044;-50
2020/12/10 08:26:08;;;;;;;9.85;2.75;;;26.60;48.50;;;;;;4149301;28;20098;-43
2020/12/10 08:28:12;;;;;;;6.88;2.55;;;26.60;48.60;;;;;;4147103;28;20056;-47
2020/12/10 08:30:15;;;;;;;7.18;2.92;;;26.60;48.50;;;;;;4146125;28;20754;-43
2020/12/10 08:32:17;;;;;;;5.25;2.10;;;26.60;48.60;;;;;;4144492;28;20486;-43
2020/12/10 08:34:19;;;;;;;6.03;2.30;;;26.60;48.60;;;;;;4152731;28;20045;-49
2020/12/10 08:36:32;;;;;;;7.07;2.67;;;26.60;48.60;;;;;;4148946;28;20475;-45
2020/12/10 08:38:34;;;;;;;9.65;2.97;;;26.50;48.60;;;;;;4152351;28;20088;-43
2020/12/10 08:40:37;;;;;;;8.27;2.60;;;26.50;48.70;;;;;;4143002;28;20494;-43
2020/12/10 08:42:40;;;;;;;7.80;2.85;;;26.50;48.80;;;;;;4146957;28;20050;-43
2020/12/10 08:44:50;;;;;;;7.20;2.80;;;26.50;48.80;;;;;;4153172;28;20175;-47
2020/12/10 08:47:01;;;;;;;7.70;2.65;;;26.40;48.80;;;;;;4148702;28;20399;-43
2020/12/10 08:49:33;;;;;;;4.85;2.45;;;26.40;48.70;;;;;;4148564;28;20042;-48
2020/12/10 08:51:40;;;;;;;6.93;2.42;;;26.40;48.60;;;;;;4137858;28;20029;-43
2020/12/10 08:53:50;;;;;;;6.18;2.58;;;26.40;48.60;;;;;;4153147;28;20029;-51
2020/12/10 08:55:57;;;;;;;6.30;2.10;;;26.40;48.60;;;;;;4147864;28;20447;-42
2020/12/10 08:57:59;;;;;;;6.28;2.75;;;26.40;48.60;;;;;;4139368;28;20033;-43
2020/12/10 09:00:01;;;;;;;8.43;2.75;;;26.40;48.60;;;;;;4134410;28;20030;-43
2020/12/10 09:02:04;;;;;;;6.97;2.50;;;26.40;48.60;;;;;;4150995;28;20195;-44
2020/12/10 09:04:06;;;;;;;7.40;2.88;;;26.30;48.50;;;;;;4147921;28;20140;-42
2020/12/10 09:06:08;;;;;;;6.65;2.42;;;26.30;48.50;;;;;;4147619;28;20045;-44
2020/12/10 09:08:11;;;;;;;7.53;2.97;;;26.30;48.50;;;;;;4151946;28;20030;-42
2020/12/10 09:10:13;;;;;;;10.55;3.67;;;26.30;48.60;;;;;;4148669;28;20396;-43
2020/12/10 09:12:15;;;;;;;6.22;2.50;;;26.30;48.50;;;;;;4145629;28;20471;-44
2020/12/10 09:14:17;;;;;;;5.45;2.30;;;26.30;48.60;;;;;;4150837;28;20037;-42
2020/12/10 09:16:20;;;;;;;7.40;2.35;;;26.30;48.60;;;;;;4149777;28;20065;-45
2020/12/10 09:18:22;;;;;;;6.32;2.45;;;26.20;48.60;;;;;;4146735;28;20121;-42
2020/12/10 09:20:25;;;;;;;5.15;2.40;;;26.20;48.60;;;;;;4135571;28;20026;-47
2020/12/10 09:22:27;;;;;;;7.72;2.28;;;26.20;48.60;;;;;;4144425;28;20451;-43
2020/12/10 09:24:29;;;;;;;4.45;2.05;;;26.20;48.70;;;;;;4148168;28;20449;-46
2020/12/10 09:26:32;;;;;;;6.88;2.35;;;26.20;48.80;;;;;;4151525;28;20051;-45
2020/12/10 09:28:34;;;;;;;4.95;2.38;;;26.20;48.80;;;;;;4152053;28;20048;-43
2020/12/10 09:30:40;;;;;;;4.68;1.77;;;26.10;48.80;;;;;;4150485;28;20037;-42
2020/12/10 09:32:42;;;;;;;4.18;1.85;;;26.10;48.80;;;;;;4157542;28;20025;-41
2020/12/10 09:34:44;;;;;;;6.65;2.10;;;26.10;48.90;;;;;;4155133;28;20049;-43
2020/12/10 09:36:46;;;;;;;6.33;2.60;;;26.10;49.00;;;;;;4156983;28;20045;-42
2020/12/10 09:38:48;;;;;;;4.28;2.10;;;26.10;49.10;;;;;;4156082;28;20135;-43
2020/12/10 09:40:51;;;;;;;4.82;2.30;;;26.10;49.20;;;;;;4154542;28;20065;-41
2020/12/10 09:42:53;;;;;;;5.88;2.20;;;26.10;49.20;;;;;;4152601;28;20037;-42
2020/12/10 09:44:56;;;;;;;4.45;1.92;;;26.10;49.20;;;;;;4157882;28;20048;-41
2020/12/10 09:46:59;;;;;;;5.90;2.20;;;26.00;49.20;;;;;;4154744;28;20565;-47
2020/12/10 09:49:01;;;;;;;5.32;2.25;;;26.00;49.20;;;;;;4147608;28;20877;-43
2020/12/10 09:51:04;;;;;;;5.85;2.53;;;26.00;49.30;;;;;;4152417;28;20057;-45
2020/12/10 09:55:38;;;;;;;5.47;2.55;;;26.00;49.50;;;;;;4141537;28;19971;-43
2020/12/10 09:57:40;;;;;;;7.32;2.60;;;26.00;49.50;;;;;;4133656;28;20479;-45
2020/12/10 09:59:42;;;;;;;5.85;2.50;;;25.90;49.40;;;;;;4135438;28;20033;-44
2020/12/10 10:01:48;;;;;;;6.40;2.33;;;26.00;49.40;;;;;;4131892;28;20054;-47
2020/12/10 10:03:50;;;;;;;7.50;2.35;;;25.90;49.20;;;;;;4143911;28;20049;-46
2020/12/10 10:05:52;;;;;;;7.60;2.33;;;25.90;49.30;;;;;;4151838;28;20033;-45
2020/12/10 10:07:54;;;;;;;5.85;2.83;;;25.90;49.20;;;;;;4148854;28;20026;-48
2020/12/10 10:09:56;;;;;;;6.13;2.42;;;25.90;49.20;;;;;;4135315;28;20053;-43
2020/12/10 10:11:58;;;;;;;6.35;2.53;;;25.90;49.20;;;;;;4131983;28;20390;-45
2020/12/10 10:14:00;;;;;;;7.25;2.90;;;25.90;49.10;;;;;;4136674;28;20124;-47
2020/12/10 10:16:02;;;;;;;7.43;2.55;;;25.80;49.00;;;;;;4131142;28;20121;-45
2020/12/10 10:18:04;;;;;;;5.53;2.45;;;25.80;48.90;;;;;;4133593;28;20034;-45
2020/12/10 10:20:07;;;;;;;6.22;2.80;;;25.80;48.80;;;;;;4137397;28;20026;-47
2020/12/10 10:22:10;;;;;;;8.45;2.80;;;25.80;48.70;;;;;;4134680;28;20045;-46
2020/12/10 10:24:13;;;;;;;5.00;2.20;;;25.80;48.60;;;;;;4135023;28;20046;-44
2020/12/10 10:26:15;;;;;;;9.27;2.60;;;25.80;48.50;;;;;;4136373;28;20025;-46
2020/12/10 10:28:17;;;;;;;6.53;2.72;;;25.80;48.40;;;;;;4134025;28;20406;-47
2020/12/10 10:30:23;;;;;;;8.30;2.67;;;25.70;48.20;;;;;;4135505;28;20407;-42
2020/12/10 10:32:25;;;;;;;7.43;2.88;;;25.70;48.10;;;;;;4132846;28;20530;-44
2020/12/10 10:34:27;;;;;;;5.53;2.20;;;25.70;47.90;;;;;;4133763;28;20065;-43
2020/12/10 10:36:30;;;;;;;6.20;2.53;;;25.70;47.90;;;;;;4135909;28;20161;-42
2020/12/10 10:38:32;;;;;;;6.20;2.28;;;25.70;47.70;;;;;;4137799;28;20116;-43
2020/12/10 10:40:39;;;;;;;7.07;2.58;;;25.60;47.50;;;;;;4136857;28;20533;-47
2020/12/10 10:42:41;;;;;;;5.93;2.30;;;25.60;47.40;;;;;;4134318;28;20049;-44
2020/12/10 10:44:44;;;;;;;5.40;2.47;;;25.60;47.20;;;;;;4136991;28;21130;-43
2020/12/10 10:46:46;;;;;;;6.95;2.28;;;25.60;47.10;;;;;;4132523;28;20152;-42
2020/12/10 10:48:48;;;;;;;5.88;2.17;;;25.60;47.10;;;;;;4133463;28;20125;-45